Aviation Digital Data Service (ADDS)

Output produced by METARs form (0237 UTC 18 June 2019)
found at http://www.aviationweather.gov/metar/data/
 
METAR text: PTSA 180150Z 06015KT 10SM SCT019TCU BKN130 BKN300 31/25 A2975 RMK TCU S
Conditions at: PTSA (KOSRAE ISLAND , FM) observed 0150 UTC 18 June 2019
Temperature: 31.0°C (88°F)
Dewpoint: 25.0°C (77°F) [RH = 71%]
Pressure (altimeter): 29.75 inches Hg (1007.5 mb)
Winds: from the ENE (60 degrees) at 17 MPH (15 knots; 7.7 m/s)
Visibility: 10 or more miles (16+ km)
Ceiling: 13000 feet AGL
Clouds: scattered clouds at 1900 feet AGL
broken clouds at 13000 feet AGL
broken clouds at 30000 feet AGL
Weather: no significant weather observed at this time

METAR text: PTSA 180050Z 05010KT 10SM SCT020 SCT130 BKN300 31/25 A2978
Conditions at: PTSA (KOSRAE ISLAND , FM) observed 0050 UTC 18 June 2019
Temperature: 31.0°C (88°F)
Dewpoint: 25.0°C (77°F) [RH = 71%]
Pressure (altimeter): 29.78 inches Hg (1008.5 mb)
Winds: from the NE (50 degrees) at 12 MPH (10 knots; 5.1 m/s)
Visibility: 10 or more miles (16+ km)
Ceiling: 30000 feet AGL
Clouds: scattered clouds at 2000 feet AGL
scattered clouds at 13000 feet AGL
broken clouds at 30000 feet AGL
Weather: no significant weather observed at this time

METAR text: PTSA 172350Z 07009KT 10SM SCT020 SCT130 BKN300 30/25 A2978
Conditions at: PTSA (KOSRAE ISLAND , FM) observed 2350 UTC 17 June 2019
Temperature: 30.0°C (86°F)
Dewpoint: 25.0°C (77°F) [RH = 75%]
Pressure (altimeter): 29.78 inches Hg (1008.5 mb)
Winds: from the ENE (70 degrees) at 10 MPH (9 knots; 4.6 m/s)
Visibility: 10 or more miles (16+ km)
Ceiling: 30000 feet AGL
Clouds: scattered clouds at 2000 feet AGL
scattered clouds at 13000 feet AGL
broken clouds at 30000 feet AGL
Weather: no significant weather observed at this time

METAR text: PTSA 172250Z 06008KT 10SM BKN019TCU BKN130 BKN300 31/25 A2980 RMK TCU SE-S
Conditions at: PTSA (KOSRAE ISLAND , FM) observed 2250 UTC 17 June 2019
Temperature: 31.0°C (88°F)
Dewpoint: 25.0°C (77°F) [RH = 71%]
Pressure (altimeter): 29.80 inches Hg (1009.2 mb)
Winds: from the ENE (60 degrees) at 9 MPH (8 knots; 4.1 m/s)
Visibility: 10 or more miles (16+ km)
Ceiling: 1900 feet AGL
Clouds: broken clouds at 1900 feet AGL
broken clouds at 13000 feet AGL
broken clouds at 30000 feet AGL
Weather: no significant weather observed at this time

METAR text: PTSA 172150Z 06005KT 10SM BKN018TCU BKN130 BKN300 29/25 A2981 RMK TCU E-S
Conditions at: PTSA (KOSRAE ISLAND , FM) observed 2150 UTC 17 June 2019
Temperature: 29.0°C (84°F)
Dewpoint: 25.0°C (77°F) [RH = 79%]
Pressure (altimeter): 29.81 inches Hg (1009.6 mb)
Winds: from the ENE (60 degrees) at 6 MPH (5 knots; 2.6 m/s)
Visibility: 10 or more miles (16+ km)
Ceiling: 1800 feet AGL
Clouds: broken clouds at 1800 feet AGL
broken clouds at 13000 feet AGL
broken clouds at 30000 feet AGL
Weather: no significant weather observed at this time

METAR text: PTSA 172121Z 08008KT 10SM SCT019 SCT130 BKN300 29/24 A2981 RMK FIRST
Conditions at: PTSA (KOSRAE ISLAND , FM) observed 2121 UTC 17 June 2019
Temperature: 29.0°C (84°F)
Dewpoint: 24.0°C (75°F) [RH = 74%]
Pressure (altimeter): 29.81 inches Hg (1009.6 mb)
Winds: from the E (80 degrees) at 9 MPH (8 knots; 4.1 m/s)
Visibility: 10 or more miles (16+ km)
Ceiling: 30000 feet AGL
Clouds: scattered clouds at 1900 feet AGL
scattered clouds at 13000 feet AGL
broken clouds at 30000 feet AGL
Weather: no significant weather observed at this time

METAR text: PTSA 170350Z 11007KT 10SM SCT018TCU BKN130 OVC300 29/25 A2976 RMK TCU SW-W LAST
Conditions at: PTSA (KOSRAE ISLAND , FM) observed 0350 UTC 17 June 2019
Temperature: 29.0°C (84°F)
Dewpoint: 25.0°C (77°F) [RH = 79%]
Pressure (altimeter): 29.76 inches Hg (1007.9 mb)
Winds: from the ESE (110 degrees) at 8 MPH (7 knots; 3.6 m/s)
Visibility: 10 or more miles (16+ km)
Ceiling: 13000 feet AGL
Clouds: scattered clouds at 1800 feet AGL
broken clouds at 13000 feet AGL
overcast cloud deck at 30000 feet AGL
Weather: no significant weather observed at this time

METAR text: PTSA 170250Z 11005KT 10SM SCT017TCU BKN130 OVC300 31/24 A2978 RMK TCU W AND N
Conditions at: PTSA (KOSRAE ISLAND , FM) observed 0250 UTC 17 June 2019
Temperature: 31.0°C (88°F)
Dewpoint: 24.0°C (75°F) [RH = 66%]
Pressure (altimeter): 29.78 inches Hg (1008.5 mb)
Winds: from the ESE (110 degrees) at 6 MPH (5 knots; 2.6 m/s)
Visibility: 10 or more miles (16+ km)
Ceiling: 13000 feet AGL
Clouds: scattered clouds at 1700 feet AGL
broken clouds at 13000 feet AGL
overcast cloud deck at 30000 feet AGL
Weather: no significant weather observed at this time

METAR text: PTSA 170150Z 10005KT 10SM SCT018TCU BKN130 OVC300 31/24 A2979 RMK TCU NE-E
Conditions at: PTSA (KOSRAE ISLAND , FM) observed 0150 UTC 17 June 2019
Temperature: 31.0°C (88°F)
Dewpoint: 24.0°C (75°F) [RH = 66%]
Pressure (altimeter): 29.79 inches Hg (1008.9 mb)
Winds: from the E (100 degrees) at 6 MPH (5 knots; 2.6 m/s)
Visibility: 10 or more miles (16+ km)
Ceiling: 13000 feet AGL
Clouds: scattered clouds at 1800 feet AGL
broken clouds at 13000 feet AGL
overcast cloud deck at 30000 feet AGL
Weather: no significant weather observed at this time

METAR text: PTSA 170050Z 07008KT 10SM SCT021 BKN130 OVC300 31/25 A2981
Conditions at: PTSA (KOSRAE ISLAND , FM) observed 0050 UTC 17 June 2019
Temperature: 31.0°C (88°F)
Dewpoint: 25.0°C (77°F) [RH = 71%]
Pressure (altimeter): 29.81 inches Hg (1009.6 mb)
Winds: from the ENE (70 degrees) at 9 MPH (8 knots; 4.1 m/s)
Visibility: 10 or more miles (16+ km)
Ceiling: 13000 feet AGL
Clouds: scattered clouds at 2100 feet AGL
broken clouds at 13000 feet AGL
overcast cloud deck at 30000 feet AGL
Weather: no significant weather observed at this time

METAR text: PTSA 162350Z 11006KT 10SM SCT020 BKN130 OVC300 30/25 A2982
Conditions at: PTSA (KOSRAE ISLAND , FM) observed 2350 UTC 16 June 2019
Temperature: 30.0°C (86°F)
Dewpoint: 25.0°C (77°F) [RH = 75%]
Pressure (altimeter): 29.82 inches Hg (1009.9 mb)
Winds: from the ESE (110 degrees) at 7 MPH (6 knots; 3.1 m/s)
Visibility: 10 or more miles (16+ km)
Ceiling: 13000 feet AGL
Clouds: scattered clouds at 2000 feet AGL
broken clouds at 13000 feet AGL
overcast cloud deck at 30000 feet AGL
Weather: no significant weather observed at this time

METAR text: PTSA 162250Z 13005KT 10SM SCT020TCU BKN130 OVC300 29/25 A2985 RMK TCU SW
Conditions at: PTSA (KOSRAE ISLAND , FM) observed 2250 UTC 16 June 2019
Temperature: 29.0°C (84°F)
Dewpoint: 25.0°C (77°F) [RH = 79%]
Pressure (altimeter): 29.85 inches Hg (1010.9 mb)
Winds: from the SE (130 degrees) at 6 MPH (5 knots; 2.6 m/s)
Visibility: 10 or more miles (16+ km)
Ceiling: 13000 feet AGL
Clouds: scattered clouds at 2000 feet AGL
broken clouds at 13000 feet AGL
overcast cloud deck at 30000 feet AGL
Weather: no significant weather observed at this time

METAR text: PTSA 162150Z 09005KT 10SM SCT019 BKN130 OVC300 29/24 A2983 RMK FIRST
Conditions at: PTSA (KOSRAE ISLAND , FM) observed 2150 UTC 16 June 2019
Temperature: 29.0°C (84°F)
Dewpoint: 24.0°C (75°F) [RH = 74%]
Pressure (altimeter): 29.83 inches Hg (1010.2 mb)
Winds: from the E (90 degrees) at 6 MPH (5 knots; 2.6 m/s)
Visibility: 10 or more miles (16+ km)
Ceiling: 13000 feet AGL
Clouds: scattered clouds at 1900 feet AGL
broken clouds at 13000 feet AGL
overcast cloud deck at 30000 feet AGL
Weather: no significant weather observed at this time

Forecast for: PTSA (KOSRAE ISLAND , FM)
Text: PTSA 172321Z 1800/1824 07011KT P6SM VCSH SCT020 BKN130
Forecast period: 0000 UTC 18 June 2019 to 0000 UTC 19 June 2019
Forecast type: FROM: standard forecast or significant change
Winds: from the ENE (70 degrees) at 13 MPH (11 knots; 5.7 m/s)
Visibility: 6 or more miles 10+ km)
Ceiling: 13000 feet AGL
Clouds: scattered clouds at 2000 feet AGL
broken clouds at 13000 feet AGL
Weather: VCSH  (showers in vicinity)
Text: TEMPO 1800/1801 BKN020
Forecast period: 0000 to 0100 UTC 18 June 2019
Forecast type: TEMPORARY: The following changes expected for less than half the time period
Visibility: missing
Ceiling: 2000 feet AGL
Clouds: broken clouds at 2000 feet AGL
Weather: no significant weather forecast for this period